sensor_id;sensor_type;location;lat;lon;timestamp;P1;durP1;ratioP1;P2;durP2;ratioP2
291;SDS011;23311;48.776;9.162;2022-11-15T00:01:14;4.13;;;3.50;;
291;SDS011;23311;48.776;9.162;2022-11-15T00:03:44;4.83;;;3.17;;
291;SDS011;23311;48.776;9.162;2022-11-15T00:06:12;3.90;;;2.90;;
291;SDS011;23311;48.776;9.162;2022-11-15T00:08:40;3.53;;;2.70;;
291;SDS011;23311;48.776;9.162;2022-11-15T00:11:09;3.63;;;3.10;;
291;SDS011;23311;48.776;9.162;2022-11-15T00:13:39;4.20;;;3.20;;
291;SDS011;23311;48.776;9.162;2022-11-15T00:16:09;3.50;;;3.00;;
291;SDS011;23311;48.776;9.162;2022-11-15T00:18:37;5.23;;;2.90;;
291;SDS011;23311;48.776;9.162;2022-11-15T00:21:07;5.20;;;2.77;;
291;SDS011;23311;48.776;9.162;2022-11-15T00:23:37;4.30;;;3.47;;
291;SDS011;23311;48.776;9.162;2022-11-15T00:26:05;3.87;;;2.90;;
291;SDS011;23311;48.776;9.162;2022-11-15T00:28:34;4.87;;;2.53;;
291;SDS011;23311;48.776;9.162;2022-11-15T00:31:02;3.47;;;3.07;;
291;SDS011;23311;48.776;9.162;2022-11-15T00:33:33;4.80;;;2.60;;
291;SDS011;23311;48.776;9.162;2022-11-15T00:36:02;3.23;;;2.50;;
291;SDS011;23311;48.776;9.162;2022-11-15T00:38:32;3.57;;;1.93;;
291;SDS011;23311;48.776;9.162;2022-11-15T00:41:01;3.83;;;2.93;;
291;SDS011;23311;48.776;9.162;2022-11-15T00:43:34;3.73;;;2.60;;
291;SDS011;23311;48.776;9.162;2022-11-15T00:46:03;4.40;;;2.73;;
291;SDS011;23311;48.776;9.162;2022-11-15T00:48:31;3.73;;;2.60;;
291;SDS011;23311;48.776;9.162;2022-11-15T00:51:00;2.97;;;2.80;;
291;SDS011;23311;48.776;9.162;2022-11-15T00:53:29;4.60;;;2.33;;
291;SDS011;23311;48.776;9.162;2022-11-15T00:55:57;4.00;;;2.77;;
291;SDS011;23311;48.776;9.162;2022-11-15T00:58:25;3.47;;;2.63;;
291;SDS011;23311;48.776;9.162;2022-11-15T01:00:53;4.77;;;3.60;;
291;SDS011;23311;48.776;9.162;2022-11-15T01:03:21;5.40;;;3.50;;
291;SDS011;23311;48.776;9.162;2022-11-15T01:05:49;4.63;;;3.50;;
291;SDS011;23311;48.776;9.162;2022-11-15T01:08:19;4.30;;;3.03;;
291;SDS011;23311;48.776;9.162;2022-11-15T01:10:47;4.20;;;2.80;;
291;SDS011;23311;48.776;9.162;2022-11-15T01:13:15;4.30;;;3.80;;
291;SDS011;23311;48.776;9.162;2022-11-15T01:15:43;7.63;;;3.93;;
291;SDS011;23311;48.776;9.162;2022-11-15T01:18:11;4.83;;;3.77;;
291;SDS011;23311;48.776;9.162;2022-11-15T01:20:40;4.43;;;3.63;;
291;SDS011;23311;48.776;9.162;2022-11-15T01:23:08;4.07;;;3.93;;
291;SDS011;23311;48.776;9.162;2022-11-15T01:25:38;4.90;;;4.10;;
291;SDS011;23311;48.776;9.162;2022-11-15T01:28:06;4.47;;;3.93;;
291;SDS011;23311;48.776;9.162;2022-11-15T01:30:35;5.67;;;4.67;;
291;SDS011;23311;48.776;9.162;2022-11-15T01:33:03;5.47;;;4.67;;
291;SDS011;23311;48.776;9.162;2022-11-15T01:35:31;4.50;;;4.20;;
291;SDS011;23311;48.776;9.162;2022-11-15T01:37:59;6.20;;;4.17;;
291;SDS011;23311;48.776;9.162;2022-11-15T01:40:27;5.00;;;4.37;;
291;SDS011;23311;48.776;9.162;2022-11-15T01:42:57;5.63;;;4.27;;
291;SDS011;23311;48.776;9.162;2022-11-15T01:45:25;6.07;;;4.60;;
291;SDS011;23311;48.776;9.162;2022-11-15T01:47:53;7.33;;;4.50;;
291;SDS011;23311;48.776;9.162;2022-11-15T01:50:23;6.70;;;4.60;;
291;SDS011;23311;48.776;9.162;2022-11-15T01:52:54;7.07;;;4.67;;
291;SDS011;23311;48.776;9.162;2022-11-15T01:55:23;7.30;;;5.27;;
291;SDS011;23311;48.776;9.162;2022-11-15T01:57:53;6.77;;;5.03;;
291;SDS011;23311;48.776;9.162;2022-11-15T02:00:25;4.90;;;4.37;;
291;SDS011;23311;48.776;9.162;2022-11-15T02:02:53;6.70;;;4.43;;
291;SDS011;23311;48.776;9.162;2022-11-15T02:05:21;8.67;;;4.70;;
291;SDS011;23311;48.776;9.162;2022-11-15T02:07:49;4.73;;;4.40;;
291;SDS011;23311;48.776;9.162;2022-11-15T02:10:19;5.93;;;4.67;;
291;SDS011;23311;48.776;9.162;2022-11-15T02:12:48;5.33;;;3.83;;
291;SDS011;23311;48.776;9.162;2022-11-15T02:15:19;4.93;;;4.03;;
291;SDS011;23311;48.776;9.162;2022-11-15T02:18:00;6.87;;;3.37;;
291;SDS011;23311;48.776;9.162;2022-11-15T02:20:45;5.47;;;3.43;;
291;SDS011;23311;48.776;9.162;2022-11-15T02:26:40;5.07;;;4.00;;
291;SDS011;23311;48.776;9.162;2022-11-15T02:29:30;6.83;;;4.30;;
291;SDS011;23311;48.776;9.162;2022-11-15T02:32:09;6.70;;;4.57;;
291;SDS011;23311;48.776;9.162;2022-11-15T02:34:44;5.80;;;4.40;;
291;SDS011;23311;48.776;9.162;2022-11-15T02:37:21;6.73;;;4.53;;
291;SDS011;23311;48.776;9.162;2022-11-15T02:39:58;5.47;;;3.73;;
291;SDS011;23311;48.776;9.162;2022-11-15T02:42:33;9.60;;;5.60;;
291;SDS011;23311;48.776;9.162;2022-11-15T02:45:28;6.17;;;4.03;;
291;SDS011;23311;48.776;9.162;2022-11-15T02:48:01;6.60;;;4.33;;
291;SDS011;23311;48.776;9.162;2022-11-15T02:50:31;6.70;;;4.53;;
291;SDS011;23311;48.776;9.162;2022-11-15T02:53:00;5.10;;;3.80;;
291;SDS011;23311;48.776;9.162;2022-11-15T02:55:29;6.13;;;4.00;;
291;SDS011;23311;48.776;9.162;2022-11-15T02:58:03;5.37;;;3.57;;
291;SDS011;23311;48.776;9.162;2022-11-15T03:00:40;6.37;;;3.97;;
291;SDS011;23311;48.776;9.162;2022-11-15T03:03:26;5.30;;;3.73;;
291;SDS011;23311;48.776;9.162;2022-11-15T03:06:05;5.60;;;3.60;;
291;SDS011;23311;48.776;9.162;2022-11-15T03:08:44;6.40;;;4.00;;
291;SDS011;23311;48.776;9.162;2022-11-15T03:11:21;4.50;;;3.47;;
291;SDS011;23311;48.776;9.162;2022-11-15T03:13:52;9.27;;;4.10;;
291;SDS011;23311;48.776;9.162;2022-11-15T03:16:26;5.77;;;4.13;;
291;SDS011;23311;48.776;9.162;2022-11-15T03:18:59;5.17;;;3.30;;
291;SDS011;23311;48.776;9.162;2022-11-15T03:21:34;4.93;;;3.70;;
291;SDS011;23311;48.776;9.162;2022-11-15T03:24:05;4.73;;;4.17;;
291;SDS011;23311;48.776;9.162;2022-11-15T03:26:36;4.67;;;4.10;;
291;SDS011;23311;48.776;9.162;2022-11-15T03:29:08;7.70;;;4.07;;
291;SDS011;23311;48.776;9.162;2022-11-15T03:31:42;8.17;;;4.57;;
291;SDS011;23311;48.776;9.162;2022-11-15T03:34:24;6.30;;;4.63;;
291;SDS011;23311;48.776;9.162;2022-11-15T03:36:54;6.53;;;4.17;;
291;SDS011;23311;48.776;9.162;2022-11-15T03:39:22;5.07;;;3.70;;
291;SDS011;23311;48.776;9.162;2022-11-15T03:41:54;6.30;;;4.20;;
291;SDS011;23311;48.776;9.162;2022-11-15T03:44:31;4.33;;;3.20;;
291;SDS011;23311;48.776;9.162;2022-11-15T03:47:07;4.07;;;3.57;;
291;SDS011;23311;48.776;9.162;2022-11-15T03:49:40;5.30;;;3.73;;
291;SDS011;23311;48.776;9.162;2022-11-15T03:52:11;5.40;;;3.70;;
291;SDS011;23311;48.776;9.162;2022-11-15T03:54:47;5.47;;;4.30;;
291;SDS011;23311;48.776;9.162;2022-11-15T03:57:16;6.73;;;4.47;;
291;SDS011;23311;48.776;9.162;2022-11-15T03:59:45;5.20;;;3.80;;
291;SDS011;23311;48.776;9.162;2022-11-15T04:02:13;4.03;;;3.70;;
291;SDS011;23311;48.776;9.162;2022-11-15T04:04:42;4.30;;;3.90;;
291;SDS011;23311;48.776;9.162;2022-11-15T04:07:10;5.13;;;3.80;;
291;SDS011;23311;48.776;9.162;2022-11-15T04:09:39;3.50;;;3.30;;
291;SDS011;23311;48.776;9.162;2022-11-15T04:12:21;4.70;;;3.27;;
291;SDS011;23311;48.776;9.162;2022-11-15T04:14:57;4.47;;;3.20;;
291;SDS011;23311;48.776;9.162;2022-11-15T04:17:37;4.77;;;4.13;;
291;SDS011;23311;48.776;9.162;2022-11-15T04:20:09;4.63;;;3.30;;
291;SDS011;23311;48.776;9.162;2022-11-15T04:22:57;4.20;;;3.57;;
291;SDS011;23311;48.776;9.162;2022-11-15T04:25:44;4.27;;;3.13;;
291;SDS011;23311;48.776;9.162;2022-11-15T04:28:12;4.20;;;3.70;;
291;SDS011;23311;48.776;9.162;2022-11-15T04:30:40;5.33;;;3.27;;
291;SDS011;23311;48.776;9.162;2022-11-15T04:33:08;8.30;;;3.60;;
291;SDS011;23311;48.776;9.162;2022-11-15T04:35:37;3.93;;;3.10;;
291;SDS011;23311;48.776;9.162;2022-11-15T04:38:06;4.37;;;3.90;;
291;SDS011;23311;48.776;9.162;2022-11-15T04:40:34;6.93;;;3.40;;
291;SDS011;23311;48.776;9.162;2022-11-15T04:43:03;3.60;;;3.10;;
291;SDS011;23311;48.776;9.162;2022-11-15T04:45:31;4.93;;;3.53;;
291;SDS011;23311;48.776;9.162;2022-11-15T04:47:59;4.50;;;3.50;;
291;SDS011;23311;48.776;9.162;2022-11-15T04:50:27;7.40;;;3.63;;
291;SDS011;23311;48.776;9.162;2022-11-15T04:52:56;6.63;;;3.50;;
291;SDS011;23311;48.776;9.162;2022-11-15T04:55:24;2.90;;;2.80;;
291;SDS011;23311;48.776;9.162;2022-11-15T04:57:58;3.93;;;2.97;;
291;SDS011;23311;48.776;9.162;2022-11-15T05:00:27;5.33;;;3.40;;
291;SDS011;23311;48.776;9.162;2022-11-15T05:02:56;3.83;;;2.67;;
291;SDS011;23311;48.776;9.162;2022-11-15T05:05:42;5.50;;;3.20;;
291;SDS011;23311;48.776;9.162;2022-11-15T05:08:11;5.27;;;3.40;;
291;SDS011;23311;48.776;9.162;2022-11-15T05:10:39;4.03;;;3.60;;
291;SDS011;23311;48.776;9.162;2022-11-15T05:13:07;4.03;;;3.77;;
291;SDS011;23311;48.776;9.162;2022-11-15T05:15:35;4.50;;;3.33;;
291;SDS011;23311;48.776;9.162;2022-11-15T05:18:03;3.60;;;3.20;;
291;SDS011;23311;48.776;9.162;2022-11-15T05:20:31;5.37;;;4.00;;
291;SDS011;23311;48.776;9.162;2022-11-15T05:22:59;4.60;;;3.40;;
291;SDS011;23311;48.776;9.162;2022-11-15T05:25:29;4.27;;;3.10;;
291;SDS011;23311;48.776;9.162;2022-11-15T05:27:57;5.03;;;3.40;;
291;SDS011;23311;48.776;9.162;2022-11-15T05:30:25;9.97;;;5.27;;
291;SDS011;23311;48.776;9.162;2022-11-15T05:32:53;5.03;;;4.10;;
291;SDS011;23311;48.776;9.162;2022-11-15T05:35:23;7.83;;;4.43;;
291;SDS011;23311;48.776;9.162;2022-11-15T05:37:57;4.50;;;3.27;;
291;SDS011;23311;48.776;9.162;2022-11-15T05:40:25;5.40;;;4.77;;
291;SDS011;23311;48.776;9.162;2022-11-15T05:42:55;5.40;;;3.97;;
291;SDS011;23311;48.776;9.162;2022-11-15T05:45:23;4.43;;;4.10;;
291;SDS011;23311;48.776;9.162;2022-11-15T05:47:52;4.27;;;3.30;;
291;SDS011;23311;48.776;9.162;2022-11-15T05:50:23;4.03;;;3.40;;
291;SDS011;23311;48.776;9.162;2022-11-15T05:52:51;4.93;;;4.33;;
291;SDS011;23311;48.776;9.162;2022-11-15T05:55:19;5.57;;;4.33;;
291;SDS011;23311;48.776;9.162;2022-11-15T05:57:47;4.60;;;3.37;;
291;SDS011;23311;48.776;9.162;2022-11-15T06:00:17;4.90;;;3.40;;
291;SDS011;23311;48.776;9.162;2022-11-15T06:02:45;6.87;;;4.10;;
291;SDS011;23311;48.776;9.162;2022-11-15T06:05:13;5.20;;;4.30;;
291;SDS011;23311;48.776;9.162;2022-11-15T06:07:42;5.10;;;3.73;;
291;SDS011;23311;48.776;9.162;2022-11-15T06:10:10;5.20;;;3.50;;
291;SDS011;23311;48.776;9.162;2022-11-15T06:12:38;6.20;;;3.80;;
291;SDS011;23311;48.776;9.162;2022-11-15T06:15:07;6.77;;;4.43;;
291;SDS011;23311;48.776;9.162;2022-11-15T06:17:37;5.10;;;3.40;;
291;SDS011;23311;48.776;9.162;2022-11-15T06:20:05;8.10;;;4.50;;
291;SDS011;23311;48.776;9.162;2022-11-15T06:22:34;4.10;;;3.80;;
291;SDS011;23311;48.776;9.162;2022-11-15T06:25:02;3.80;;;3.37;;
291;SDS011;23311;48.776;9.162;2022-11-15T06:27:31;4.60;;;3.53;;
291;SDS011;23311;48.776;9.162;2022-11-15T06:29:59;7.60;;;4.10;;
291;SDS011;23311;48.776;9.162;2022-11-15T06:32:28;7.27;;;6.10;;
291;SDS011;23311;48.776;9.162;2022-11-15T06:34:58;13.17;;;9.33;;
291;SDS011;23311;48.776;9.162;2022-11-15T06:37:26;7.40;;;5.40;;
291;SDS011;23311;48.776;9.162;2022-11-15T06:39:54;7.80;;;5.00;;
291;SDS011;23311;48.776;9.162;2022-11-15T06:42:22;6.80;;;4.60;;
291;SDS011;23311;48.776;9.162;2022-11-15T06:44:50;10.10;;;6.13;;
291;SDS011;23311;48.776;9.162;2022-11-15T06:47:18;6.33;;;4.40;;
291;SDS011;23311;48.776;9.162;2022-11-15T06:49:46;6.90;;;5.70;;
291;SDS011;23311;48.776;9.162;2022-11-15T06:52:16;10.43;;;6.10;;
291;SDS011;23311;48.776;9.162;2022-11-15T06:54:44;7.43;;;5.00;;
291;SDS011;23311;48.776;9.162;2022-11-15T06:57:15;6.80;;;5.10;;
291;SDS011;23311;48.776;9.162;2022-11-15T06:59:43;7.50;;;5.20;;
291;SDS011;23311;48.776;9.162;2022-11-15T07:02:11;7.80;;;6.10;;
291;SDS011;23311;48.776;9.162;2022-11-15T07:04:40;5.60;;;4.37;;
291;SDS011;23311;48.776;9.162;2022-11-15T07:07:09;8.87;;;6.30;;
291;SDS011;23311;48.776;9.162;2022-11-15T07:09:38;6.93;;;6.50;;
291;SDS011;23311;48.776;9.162;2022-11-15T07:12:06;9.93;;;5.47;;
291;SDS011;23311;48.776;9.162;2022-11-15T07:14:34;7.60;;;4.33;;
291;SDS011;23311;48.776;9.162;2022-11-15T07:17:03;6.93;;;4.40;;
291;SDS011;23311;48.776;9.162;2022-11-15T07:19:31;4.60;;;3.67;;
291;SDS011;23311;48.776;9.162;2022-11-15T07:21:59;4.67;;;3.43;;
291;SDS011;23311;48.776;9.162;2022-11-15T07:24:30;5.17;;;3.60;;
291;SDS011;23311;48.776;9.162;2022-11-15T07:26:59;5.00;;;3.30;;
291;SDS011;23311;48.776;9.162;2022-11-15T07:29:27;3.90;;;3.50;;
291;SDS011;23311;48.776;9.162;2022-11-15T07:31:58;4.80;;;3.37;;
291;SDS011;23311;48.776;9.162;2022-11-15T07:34:26;4.70;;;3.60;;
291;SDS011;23311;48.776;9.162;2022-11-15T07:36:54;4.57;;;3.70;;
291;SDS011;23311;48.776;9.162;2022-11-15T07:39:22;4.33;;;3.03;;
291;SDS011;23311;48.776;9.162;2022-11-15T07:41:50;8.53;;;3.10;;
291;SDS011;23311;48.776;9.162;2022-11-15T07:44:40;4.67;;;2.50;;
291;SDS011;23311;48.776;9.162;2022-11-15T07:47:09;5.00;;;3.23;;
291;SDS011;23311;48.776;9.162;2022-11-15T07:49:37;4.43;;;3.43;;
291;SDS011;23311;48.776;9.162;2022-11-15T07:52:05;3.87;;;2.80;;
291;SDS011;23311;48.776;9.162;2022-11-15T07:54:33;4.63;;;3.50;;
291;SDS011;23311;48.776;9.162;2022-11-15T07:57:01;4.20;;;2.60;;
291;SDS011;23311;48.776;9.162;2022-11-15T07:59:32;4.20;;;3.03;;
291;SDS011;23311;48.776;9.162;2022-11-15T08:02:02;3.10;;;2.83;;
291;SDS011;23311;48.776;9.162;2022-11-15T08:04:30;2.87;;;2.60;;
291;SDS011;23311;48.776;9.162;2022-11-15T08:06:59;6.13;;;3.63;;
291;SDS011;23311;48.776;9.162;2022-11-15T08:09:27;4.70;;;3.10;;
291;SDS011;23311;48.776;9.162;2022-11-15T08:11:55;4.47;;;3.77;;
291;SDS011;23311;48.776;9.162;2022-11-15T08:14:23;3.67;;;3.07;;
291;SDS011;23311;48.776;9.162;2022-11-15T08:16:51;3.63;;;3.50;;
291;SDS011;23311;48.776;9.162;2022-11-15T08:19:21;3.83;;;3.30;;
291;SDS011;23311;48.776;9.162;2022-11-15T08:21:49;4.63;;;3.20;;
291;SDS011;23311;48.776;9.162;2022-11-15T08:24:17;5.03;;;3.63;;
291;SDS011;23311;48.776;9.162;2022-11-15T08:26:46;6.47;;;3.50;;
291;SDS011;23311;48.776;9.162;2022-11-15T08:29:14;3.80;;;3.00;;
291;SDS011;23311;48.776;9.162;2022-11-15T08:31:42;6.30;;;2.73;;
291;SDS011;23311;48.776;9.162;2022-11-15T08:34:10;5.10;;;3.00;;
291;SDS011;23311;48.776;9.162;2022-11-15T08:36:40;3.27;;;2.70;;
291;SDS011;23311;48.776;9.162;2022-11-15T08:39:11;5.33;;;2.83;;
291;SDS011;23311;48.776;9.162;2022-11-15T08:41:39;3.90;;;2.90;;
291;SDS011;23311;48.776;9.162;2022-11-15T08:44:08;5.90;;;2.97;;
291;SDS011;23311;48.776;9.162;2022-11-15T08:46:36;3.23;;;2.90;;
291;SDS011;23311;48.776;9.162;2022-11-15T08:49:04;5.30;;;2.70;;
291;SDS011;23311;48.776;9.162;2022-11-15T08:51:32;2.70;;;2.50;;
291;SDS011;23311;48.776;9.162;2022-11-15T08:54:01;4.20;;;2.73;;
291;SDS011;23311;48.776;9.162;2022-11-15T08:56:29;3.30;;;2.70;;
291;SDS011;23311;48.776;9.162;2022-11-15T08:58:57;4.20;;;3.00;;
291;SDS011;23311;48.776;9.162;2022-11-15T09:01:27;4.67;;;3.07;;
291;SDS011;23311;48.776;9.162;2022-11-15T09:03:55;7.33;;;4.50;;
291;SDS011;23311;48.776;9.162;2022-11-15T09:06:23;3.83;;;2.73;;
291;SDS011;23311;48.776;9.162;2022-11-15T09:08:51;4.53;;;2.47;;
291;SDS011;23311;48.776;9.162;2022-11-15T09:11:21;3.40;;;2.63;;
291;SDS011;23311;48.776;9.162;2022-11-15T09:13:49;4.57;;;2.60;;
291;SDS011;23311;48.776;9.162;2022-11-15T09:16:17;6.90;;;2.87;;
291;SDS011;23311;48.776;9.162;2022-11-15T09:18:46;4.43;;;2.50;;
291;SDS011;23311;48.776;9.162;2022-11-15T09:21:14;5.00;;;3.10;;
291;SDS011;23311;48.776;9.162;2022-11-15T09:23:42;6.00;;;2.90;;
291;SDS011;23311;48.776;9.162;2022-11-15T09:26:10;4.03;;;2.43;;
291;SDS011;23311;48.776;9.162;2022-11-15T09:28:39;4.40;;;2.10;;
291;SDS011;23311;48.776;9.162;2022-11-15T09:31:08;3.77;;;2.53;;
291;SDS011;23311;48.776;9.162;2022-11-15T09:33:37;7.37;;;4.10;;
291;SDS011;23311;48.776;9.162;2022-11-15T09:36:07;9.57;;;5.57;;
291;SDS011;23311;48.776;9.162;2022-11-15T09:38:36;5.90;;;3.57;;
291;SDS011;23311;48.776;9.162;2022-11-15T09:41:13;7.63;;;4.50;;
291;SDS011;23311;48.776;9.162;2022-11-15T09:44:04;6.70;;;4.87;;
291;SDS011;23311;48.776;9.162;2022-11-15T09:46:53;8.00;;;4.83;;
291;SDS011;23311;48.776;9.162;2022-11-15T09:49:30;7.10;;;4.87;;
291;SDS011;23311;48.776;9.162;2022-11-15T09:51:59;8.43;;;4.10;;
291;SDS011;23311;48.776;9.162;2022-11-15T09:54:28;5.40;;;3.20;;
291;SDS011;23311;48.776;9.162;2022-11-15T09:57:20;4.87;;;3.80;;
291;SDS011;23311;48.776;9.162;2022-11-15T09:59:55;5.30;;;3.17;;
291;SDS011;23311;48.776;9.162;2022-11-15T10:02:55;4.37;;;2.80;;
291;SDS011;23311;48.776;9.162;2022-11-15T10:05:28;4.23;;;2.23;;
291;SDS011;23311;48.776;9.162;2022-11-15T10:07:57;3.93;;;2.03;;
291;SDS011;23311;48.776;9.162;2022-11-15T10:10:32;4.70;;;2.80;;
291;SDS011;23311;48.776;9.162;2022-11-15T10:13:06;4.70;;;3.03;;
291;SDS011;23311;48.776;9.162;2022-11-15T10:15:42;5.10;;;2.33;;
291;SDS011;23311;48.776;9.162;2022-11-15T10:18:14;2.40;;;1.87;;
291;SDS011;23311;48.776;9.162;2022-11-15T10:20:47;3.53;;;2.30;;
291;SDS011;23311;48.776;9.162;2022-11-15T10:23:17;4.40;;;2.20;;
291;SDS011;23311;48.776;9.162;2022-11-15T10:25:48;4.40;;;2.17;;
291;SDS011;23311;48.776;9.162;2022-11-15T10:28:21;4.93;;;2.67;;
291;SDS011;23311;48.776;9.162;2022-11-15T10:30:58;5.70;;;2.53;;
291;SDS011;23311;48.776;9.162;2022-11-15T10:33:29;3.83;;;2.30;;
291;SDS011;23311;48.776;9.162;2022-11-15T10:36:22;3.20;;;2.03;;
291;SDS011;23311;48.776;9.162;2022-11-15T10:38:57;4.93;;;2.03;;
291;SDS011;23311;48.776;9.162;2022-11-15T10:41:29;4.67;;;2.40;;
291;SDS011;23311;48.776;9.162;2022-11-15T10:44:02;3.97;;;2.30;;
291;SDS011;23311;48.776;9.162;2022-11-15T10:46:39;3.07;;;2.20;;
291;SDS011;23311;48.776;9.162;2022-11-15T10:49:13;6.77;;;2.60;;
291;SDS011;23311;48.776;9.162;2022-11-15T10:51:44;3.20;;;2.37;;
291;SDS011;23311;48.776;9.162;2022-11-15T10:54:15;2.80;;;2.50;;
291;SDS011;23311;48.776;9.162;2022-11-15T10:56:51;3.00;;;2.20;;
291;SDS011;23311;48.776;9.162;2022-11-15T10:59:23;2.63;;;2.23;;
291;SDS011;23311;48.776;9.162;2022-11-15T11:01:55;3.33;;;2.30;;
291;SDS011;23311;48.776;9.162;2022-11-15T11:04:23;3.30;;;2.70;;
291;SDS011;23311;48.776;9.162;2022-11-15T11:06:52;2.40;;;1.90;;
291;SDS011;23311;48.776;9.162;2022-11-15T11:09:23;5.67;;;2.67;;
291;SDS011;23311;48.776;9.162;2022-11-15T11:11:58;3.20;;;2.47;;
291;SDS011;23311;48.776;9.162;2022-11-15T11:14:27;4.07;;;2.53;;
291;SDS011;23311;48.776;9.162;2022-11-15T11:17:01;3.13;;;1.70;;
291;SDS011;23311;48.776;9.162;2022-11-15T11:19:39;3.20;;;3.00;;
291;SDS011;23311;48.776;9.162;2022-11-15T11:22:20;3.07;;;1.93;;
291;SDS011;23311;48.776;9.162;2022-11-15T11:24:56;3.53;;;2.10;;
291;SDS011;23311;48.776;9.162;2022-11-15T11:27:35;2.90;;;2.23;;
291;SDS011;23311;48.776;9.162;2022-11-15T11:30:10;3.47;;;2.07;;
291;SDS011;23311;48.776;9.162;2022-11-15T11:32:54;3.53;;;2.10;;
291;SDS011;23311;48.776;9.162;2022-11-15T11:35:29;3.77;;;3.10;;
291;SDS011;23311;48.776;9.162;2022-11-15T11:38:05;3.70;;;2.00;;
291;SDS011;23311;48.776;9.162;2022-11-15T11:40:44;4.90;;;2.50;;
291;SDS011;23311;48.776;9.162;2022-11-15T11:43:25;3.00;;;1.70;;
291;SDS011;23311;48.776;9.162;2022-11-15T11:46:07;5.07;;;3.03;;
291;SDS011;23311;48.776;9.162;2022-11-15T11:48:50;5.30;;;2.33;;
291;SDS011;23311;48.776;9.162;2022-11-15T11:51:24;3.73;;;2.27;;
291;SDS011;23311;48.776;9.162;2022-11-15T11:53:57;3.70;;;2.30;;
291;SDS011;23311;48.776;9.162;2022-11-15T11:56:31;4.37;;;2.50;;
291;SDS011;23311;48.776;9.162;2022-11-15T11:59:03;3.27;;;1.97;;
291;SDS011;23311;48.776;9.162;2022-11-15T12:01:39;6.23;;;2.27;;
291;SDS011;23311;48.776;9.162;2022-11-15T12:04:13;3.37;;;2.20;;
291;SDS011;23311;48.776;9.162;2022-11-15T12:06:46;3.87;;;2.00;;
291;SDS011;23311;48.776;9.162;2022-11-15T12:09:19;3.13;;;1.73;;
291;SDS011;23311;48.776;9.162;2022-11-15T12:11:52;3.60;;;2.30;;
291;SDS011;23311;48.776;9.162;2022-11-15T12:14:27;4.97;;;3.90;;
291;SDS011;23311;48.776;9.162;2022-11-15T12:17:01;7.13;;;4.30;;
291;SDS011;23311;48.776;9.162;2022-11-15T12:19:30;5.83;;;5.07;;
291;SDS011;23311;48.776;9.162;2022-11-15T12:22:00;5.20;;;4.30;;
291;SDS011;23311;48.776;9.162;2022-11-15T12:24:33;5.30;;;3.50;;
291;SDS011;23311;48.776;9.162;2022-11-15T12:27:08;6.90;;;3.67;;
291;SDS011;23311;48.776;9.162;2022-11-15T12:29:51;4.53;;;4.27;;
291;SDS011;23311;48.776;9.162;2022-11-15T12:32:25;6.93;;;4.20;;
291;SDS011;23311;48.776;9.162;2022-11-15T12:34:57;6.00;;;3.23;;
291;SDS011;23311;48.776;9.162;2022-11-15T12:37:44;2.83;;;2.00;;
291;SDS011;23311;48.776;9.162;2022-11-15T12:46:02;3.83;;;2.27;;
291;SDS011;23311;48.776;9.162;2022-11-15T12:48:46;2.17;;;1.73;;
291;SDS011;23311;48.776;9.162;2022-11-15T12:51:20;3.00;;;1.90;;
291;SDS011;23311;48.776;9.162;2022-11-15T12:53:50;4.60;;;2.17;;
291;SDS011;23311;48.776;9.162;2022-11-15T12:56:21;3.83;;;1.80;;
291;SDS011;23311;48.776;9.162;2022-11-15T12:58:54;2.87;;;1.90;;
291;SDS011;23311;48.776;9.162;2022-11-15T13:04:27;2.97;;;1.70;;
291;SDS011;23311;48.776;9.162;2022-11-15T13:07:00;4.00;;;1.97;;
291;SDS011;23311;48.776;9.162;2022-11-15T13:15:37;6.60;;;3.10;;
291;SDS011;23311;48.776;9.162;2022-11-15T13:18:28;4.53;;;3.30;;
291;SDS011;23311;48.776;9.162;2022-11-15T13:21:02;3.13;;;2.30;;
291;SDS011;23311;48.776;9.162;2022-11-15T13:23:56;4.60;;;3.43;;
291;SDS011;23311;48.776;9.162;2022-11-15T13:26:25;5.50;;;3.17;;
291;SDS011;23311;48.776;9.162;2022-11-15T13:28:53;3.97;;;3.30;;
291;SDS011;23311;48.776;9.162;2022-11-15T13:31:26;6.00;;;3.30;;
291;SDS011;23311;48.776;9.162;2022-11-15T13:33:58;3.80;;;2.97;;
291;SDS011;23311;48.776;9.162;2022-11-15T13:36:29;4.23;;;3.20;;
291;SDS011;23311;48.776;9.162;2022-11-15T13:39:02;4.20;;;3.20;;
291;SDS011;23311;48.776;9.162;2022-11-15T13:41:33;4.83;;;3.47;;
291;SDS011;23311;48.776;9.162;2022-11-15T13:44:02;4.10;;;2.80;;
291;SDS011;23311;48.776;9.162;2022-11-15T13:46:31;8.40;;;3.80;;
291;SDS011;23311;48.776;9.162;2022-11-15T13:49:01;5.03;;;3.03;;
291;SDS011;23311;48.776;9.162;2022-11-15T13:51:34;5.20;;;3.00;;
291;SDS011;23311;48.776;9.162;2022-11-15T13:54:09;4.20;;;3.10;;
291;SDS011;23311;48.776;9.162;2022-11-15T13:56:47;4.37;;;3.80;;
291;SDS011;23311;48.776;9.162;2022-11-15T13:59:23;3.27;;;2.80;;
291;SDS011;23311;48.776;9.162;2022-11-15T14:01:52;6.93;;;3.10;;
291;SDS011;23311;48.776;9.162;2022-11-15T14:04:22;5.83;;;4.00;;
291;SDS011;23311;48.776;9.162;2022-11-15T14:06:53;5.80;;;3.63;;
291;SDS011;23311;48.776;9.162;2022-11-15T14:09:28;5.50;;;3.50;;
291;SDS011;23311;48.776;9.162;2022-11-15T14:12:00;4.33;;;2.50;;
291;SDS011;23311;48.776;9.162;2022-11-15T14:14:29;4.70;;;2.90;;
291;SDS011;23311;48.776;9.162;2022-11-15T14:16:58;4.00;;;3.07;;
291;SDS011;23311;48.776;9.162;2022-11-15T14:19:37;4.17;;;2.80;;
291;SDS011;23311;48.776;9.162;2022-11-15T14:22:07;5.50;;;3.10;;
291;SDS011;23311;48.776;9.162;2022-11-15T14:24:39;5.00;;;4.30;;
291;SDS011;23311;48.776;9.162;2022-11-15T14:27:18;3.90;;;2.93;;
291;SDS011;23311;48.776;9.162;2022-11-15T14:29:47;5.87;;;4.37;;
291;SDS011;23311;48.776;9.162;2022-11-15T14:32:17;4.23;;;3.50;;
291;SDS011;23311;48.776;9.162;2022-11-15T14:34:47;6.03;;;4.13;;
291;SDS011;23311;48.776;9.162;2022-11-15T14:37:19;4.03;;;3.00;;
291;SDS011;23311;48.776;9.162;2022-11-15T14:39:50;4.73;;;3.60;;
291;SDS011;23311;48.776;9.162;2022-11-15T14:42:19;4.37;;;3.10;;
291;SDS011;23311;48.776;9.162;2022-11-15T14:44:49;4.80;;;3.40;;
291;SDS011;23311;48.776;9.162;2022-11-15T14:47:17;5.30;;;3.43;;
291;SDS011;23311;48.776;9.162;2022-11-15T14:49:45;4.07;;;3.20;;
291;SDS011;23311;48.776;9.162;2022-11-15T14:52:22;4.93;;;3.70;;
291;SDS011;23311;48.776;9.162;2022-11-15T14:55:00;5.30;;;4.10;;
291;SDS011;23311;48.776;9.162;2022-11-15T14:57:29;6.33;;;4.30;;
291;SDS011;23311;48.776;9.162;2022-11-15T14:59:57;4.67;;;3.33;;
291;SDS011;23311;48.776;9.162;2022-11-15T15:02:26;4.33;;;3.40;;
291;SDS011;23311;48.776;9.162;2022-11-15T15:04:54;4.20;;;3.60;;
291;SDS011;23311;48.776;9.162;2022-11-15T15:07:27;6.47;;;3.83;;
291;SDS011;23311;48.776;9.162;2022-11-15T15:09:55;5.20;;;3.90;;
291;SDS011;23311;48.776;9.162;2022-11-15T15:12:44;5.57;;;3.70;;
291;SDS011;23311;48.776;9.162;2022-11-15T15:15:13;5.33;;;3.53;;
291;SDS011;23311;48.776;9.162;2022-11-15T15:17:43;3.57;;;3.40;;
291;SDS011;23311;48.776;9.162;2022-11-15T15:20:11;4.47;;;3.30;;
291;SDS011;23311;48.776;9.162;2022-11-15T15:22:39;8.33;;;3.60;;
291;SDS011;23311;48.776;9.162;2022-11-15T15:25:17;4.43;;;3.57;;
291;SDS011;23311;48.776;9.162;2022-11-15T15:27:49;5.13;;;3.70;;
291;SDS011;23311;48.776;9.162;2022-11-15T15:30:20;5.53;;;3.53;;
291;SDS011;23311;48.776;9.162;2022-11-15T15:32:50;8.50;;;4.57;;
291;SDS011;23311;48.776;9.162;2022-11-15T15:35:18;7.70;;;3.87;;
291;SDS011;23311;48.776;9.162;2022-11-15T15:37:47;7.00;;;4.40;;
291;SDS011;23311;48.776;9.162;2022-11-15T15:40:17;4.57;;;3.80;;
291;SDS011;23311;48.776;9.162;2022-11-15T15:42:46;6.73;;;3.93;;
291;SDS011;23311;48.776;9.162;2022-11-15T15:45:17;5.10;;;3.60;;
291;SDS011;23311;48.776;9.162;2022-11-15T15:47:46;4.47;;;3.77;;
291;SDS011;23311;48.776;9.162;2022-11-15T15:50:20;4.67;;;4.10;;
291;SDS011;23311;48.776;9.162;2022-11-15T15:52:50;6.73;;;4.10;;
291;SDS011;23311;48.776;9.162;2022-11-15T15:55:20;6.93;;;4.00;;
291;SDS011;23311;48.776;9.162;2022-11-15T15:57:48;5.80;;;4.10;;
291;SDS011;23311;48.776;9.162;2022-11-15T16:00:18;9.63;;;4.20;;